sensor_id;sensor_type;location;lat;lon;timestamp;P1;durP1;ratioP1;P2;durP2;ratioP2
6751;SDS011;3413;47.680;9.166;2024-03-06T01:13:49;4.93;;;1.97;;
6751;SDS011;3413;47.680;9.166;2024-03-06T01:20:35;3.40;;;2.07;;
6751;SDS011;3413;47.680;9.166;2024-03-06T01:27:42;4.30;;;2.60;;
6751;SDS011;3413;47.680;9.166;2024-03-06T01:34:13;4.17;;;2.27;;
6751;SDS011;3413;47.680;9.166;2024-03-06T01:47:24;3.63;;;2.07;;
6751;SDS011;3413;47.680;9.166;2024-03-06T01:54:07;3.40;;;2.00;;
6751;SDS011;3413;47.680;9.166;2024-03-06T02:01:16;3.00;;;1.93;;
6751;SDS011;3413;47.680;9.166;2024-03-06T02:15:05;3.10;;;1.83;;
6751;SDS011;3413;47.680;9.166;2024-03-06T02:21:37;2.90;;;1.90;;
6751;SDS011;3413;47.680;9.166;2024-03-06T02:28:28;4.53;;;2.93;;
6751;SDS011;3413;47.680;9.166;2024-03-06T02:35:14;2.47;;;1.33;;
6751;SDS011;3413;47.680;9.166;2024-03-06T02:42:01;2.20;;;1.60;;
6751;SDS011;3413;47.680;9.166;2024-03-06T02:48:35;1.83;;;1.40;;
6751;SDS011;3413;47.680;9.166;2024-03-06T02:55:22;2.40;;;1.50;;
6751;SDS011;3413;47.680;9.166;2024-03-06T03:01:21;3.20;;;1.10;;
6751;SDS011;3413;47.680;9.166;2024-03-06T03:07:23;2.33;;;1.47;;
6751;SDS011;3413;47.680;9.166;2024-03-06T03:13:36;3.20;;;1.47;;
6751;SDS011;3413;47.680;9.166;2024-03-06T03:26:29;2.30;;;1.47;;
6751;SDS011;3413;47.680;9.166;2024-03-06T03:32:40;2.57;;;1.80;;
6751;SDS011;3413;47.680;9.166;2024-03-06T03:39:20;2.23;;;1.53;;
6751;SDS011;3413;47.680;9.166;2024-03-06T03:45:18;1.73;;;1.20;;
6751;SDS011;3413;47.680;9.166;2024-03-06T03:51:20;2.20;;;1.23;;
6751;SDS011;3413;47.680;9.166;2024-03-06T03:57:25;2.57;;;1.30;;
6751;SDS011;3413;47.680;9.166;2024-03-06T04:03:25;3.07;;;1.90;;
6751;SDS011;3413;47.680;9.166;2024-03-06T04:09:45;2.80;;;1.43;;
6751;SDS011;3413;47.680;9.166;2024-03-06T04:15:58;3.30;;;1.80;;
6751;SDS011;3413;47.680;9.166;2024-03-06T04:22:26;3.20;;;1.70;;
6751;SDS011;3413;47.680;9.166;2024-03-06T04:34:24;5.83;;;1.60;;
6751;SDS011;3413;47.680;9.166;2024-03-06T04:40:13;2.30;;;1.53;;
6751;SDS011;3413;47.680;9.166;2024-03-06T04:47:11;1.50;;;1.23;;
6751;SDS011;3413;47.680;9.166;2024-03-06T04:53:42;3.30;;;1.87;;
6751;SDS011;3413;47.680;9.166;2024-03-06T04:59:45;6.17;;;1.83;;
6751;SDS011;3413;47.680;9.166;2024-03-06T05:06:17;2.97;;;1.90;;
6751;SDS011;3413;47.680;9.166;2024-03-06T05:12:14;2.17;;;1.03;;
6751;SDS011;3413;47.680;9.166;2024-03-06T05:24:07;11.27;;;2.00;;
6751;SDS011;3413;47.680;9.166;2024-03-06T05:30:28;3.17;;;1.63;;
6751;SDS011;3413;47.680;9.166;2024-03-06T05:36:28;2.10;;;1.23;;
6751;SDS011;3413;47.680;9.166;2024-03-06T05:42:40;2.73;;;1.80;;
6751;SDS011;3413;47.680;9.166;2024-03-06T05:53:53;4.30;;;1.57;;
6751;SDS011;3413;47.680;9.166;2024-03-06T06:05:04;3.97;;;1.73;;
6751;SDS011;3413;47.680;9.166;2024-03-06T06:11:05;2.47;;;1.60;;
6751;SDS011;3413;47.680;9.166;2024-03-06T06:16:56;2.90;;;1.80;;
6751;SDS011;3413;47.680;9.166;2024-03-06T06:22:44;2.50;;;1.63;;
6751;SDS011;3413;47.680;9.166;2024-03-06T06:45:14;5.83;;;2.20;;
6751;SDS011;3413;47.680;9.166;2024-03-06T06:56:08;12.03;;;1.77;;
6751;SDS011;3413;47.680;9.166;2024-03-06T07:01:13;4.47;;;2.30;;
6751;SDS011;3413;47.680;9.166;2024-03-06T07:06:23;2.17;;;1.33;;
6751;SDS011;3413;47.680;9.166;2024-03-06T07:11:31;4.00;;;1.97;;
6751;SDS011;3413;47.680;9.166;2024-03-06T07:16:44;3.50;;;1.80;;
6751;SDS011;3413;47.680;9.166;2024-03-06T07:21:48;4.43;;;2.10;;
6751;SDS011;3413;47.680;9.166;2024-03-06T07:26:50;9.63;;;1.83;;
6751;SDS011;3413;47.680;9.166;2024-03-06T07:31:52;3.67;;;1.70;;
6751;SDS011;3413;47.680;9.166;2024-03-06T07:36:55;3.03;;;1.70;;
6751;SDS011;3413;47.680;9.166;2024-03-06T07:41:57;2.73;;;1.90;;
6751;SDS011;3413;47.680;9.166;2024-03-06T07:46:58;5.33;;;2.80;;
6751;SDS011;3413;47.680;9.166;2024-03-06T07:52:01;4.07;;;1.90;;
6751;SDS011;3413;47.680;9.166;2024-03-06T07:57:03;2.90;;;1.77;;
6751;SDS011;3413;47.680;9.166;2024-03-06T08:02:05;4.10;;;1.90;;
6751;SDS011;3413;47.680;9.166;2024-03-06T08:07:08;3.40;;;2.17;;
6751;SDS011;3413;47.680;9.166;2024-03-06T08:12:10;3.43;;;1.83;;
6751;SDS011;3413;47.680;9.166;2024-03-06T08:17:12;2.53;;;1.50;;
6751;SDS011;3413;47.680;9.166;2024-03-06T08:22:14;2.70;;;1.40;;
6751;SDS011;3413;47.680;9.166;2024-03-06T08:27:16;3.30;;;1.37;;
6751;SDS011;3413;47.680;9.166;2024-03-06T08:32:18;2.80;;;1.60;;
6751;SDS011;3413;47.680;9.166;2024-03-06T08:37:20;3.10;;;1.53;;
6751;SDS011;3413;47.680;9.166;2024-03-06T08:42:22;5.43;;;1.67;;
6751;SDS011;3413;47.680;9.166;2024-03-06T08:47:24;2.47;;;1.50;;
6751;SDS011;3413;47.680;9.166;2024-03-06T08:52:26;2.83;;;1.73;;
6751;SDS011;3413;47.680;9.166;2024-03-06T08:57:28;3.67;;;1.67;;
6751;SDS011;3413;47.680;9.166;2024-03-06T09:02:32;3.73;;;1.57;;
6751;SDS011;3413;47.680;9.166;2024-03-06T09:07:34;2.07;;;1.33;;
6751;SDS011;3413;47.680;9.166;2024-03-06T09:12:42;2.10;;;1.30;;
6751;SDS011;3413;47.680;9.166;2024-03-06T09:17:44;5.17;;;1.97;;
6751;SDS011;3413;47.680;9.166;2024-03-06T09:22:47;5.50;;;1.43;;
6751;SDS011;3413;47.680;9.166;2024-03-06T09:27:49;3.83;;;1.60;;
6751;SDS011;3413;47.680;9.166;2024-03-06T09:32:51;4.40;;;2.07;;
6751;SDS011;3413;47.680;9.166;2024-03-06T09:37:53;2.30;;;1.47;;
6751;SDS011;3413;47.680;9.166;2024-03-06T09:42:57;3.43;;;2.10;;
6751;SDS011;3413;47.680;9.166;2024-03-06T09:47:59;3.93;;;1.80;;
6751;SDS011;3413;47.680;9.166;2024-03-06T09:53:01;3.23;;;1.67;;
6751;SDS011;3413;47.680;9.166;2024-03-06T09:58:05;4.70;;;1.80;;
6751;SDS011;3413;47.680;9.166;2024-03-06T10:03:09;2.83;;;1.60;;
6751;SDS011;3413;47.680;9.166;2024-03-06T10:08:12;7.10;;;2.00;;
6751;SDS011;3413;47.680;9.166;2024-03-06T10:13:18;3.67;;;1.90;;
6751;SDS011;3413;47.680;9.166;2024-03-06T10:18:26;2.50;;;1.60;;
6751;SDS011;3413;47.680;9.166;2024-03-06T10:23:29;2.43;;;1.80;;
6751;SDS011;3413;47.680;9.166;2024-03-06T10:28:31;5.73;;;2.47;;
6751;SDS011;3413;47.680;9.166;2024-03-06T10:33:33;4.53;;;1.80;;
6751;SDS011;3413;47.680;9.166;2024-03-06T10:38:35;3.27;;;1.90;;
6751;SDS011;3413;47.680;9.166;2024-03-06T10:43:43;6.03;;;2.40;;
6751;SDS011;3413;47.680;9.166;2024-03-06T10:48:48;6.77;;;1.83;;
6751;SDS011;3413;47.680;9.166;2024-03-06T10:53:51;3.60;;;1.77;;
6751;SDS011;3413;47.680;9.166;2024-03-06T10:58:54;3.87;;;1.60;;
6751;SDS011;3413;47.680;9.166;2024-03-06T11:04:00;4.70;;;2.00;;
6751;SDS011;3413;47.680;9.166;2024-03-06T11:09:02;2.63;;;1.70;;
6751;SDS011;3413;47.680;9.166;2024-03-06T11:14:04;2.60;;;1.70;;
6751;SDS011;3413;47.680;9.166;2024-03-06T11:19:09;2.83;;;1.70;;
6751;SDS011;3413;47.680;9.166;2024-03-06T11:29:18;2.40;;;1.40;;
6751;SDS011;3413;47.680;9.166;2024-03-06T11:34:21;3.40;;;1.50;;
6751;SDS011;3413;47.680;9.166;2024-03-06T11:39:23;3.20;;;1.70;;
6751;SDS011;3413;47.680;9.166;2024-03-06T11:44:28;3.23;;;1.90;;
6751;SDS011;3413;47.680;9.166;2024-03-06T11:49:31;4.00;;;2.20;;
6751;SDS011;3413;47.680;9.166;2024-03-06T11:54:35;4.60;;;1.77;;
6751;SDS011;3413;47.680;9.166;2024-03-06T11:59:38;2.00;;;1.20;;
6751;SDS011;3413;47.680;9.166;2024-03-06T12:04:40;4.97;;;2.10;;
6751;SDS011;3413;47.680;9.166;2024-03-06T12:09:42;4.33;;;1.63;;
6751;SDS011;3413;47.680;9.166;2024-03-06T12:14:55;4.33;;;2.10;;
6751;SDS011;3413;47.680;9.166;2024-03-06T12:20:01;2.73;;;1.57;;
6751;SDS011;3413;47.680;9.166;2024-03-06T12:25:04;3.17;;;1.70;;
6751;SDS011;3413;47.680;9.166;2024-03-06T12:30:09;3.60;;;1.83;;
6751;SDS011;3413;47.680;9.166;2024-03-06T12:35:14;4.10;;;1.80;;
6751;SDS011;3413;47.680;9.166;2024-03-06T12:40:28;2.63;;;1.50;;
6751;SDS011;3413;47.680;9.166;2024-03-06T12:45:30;4.07;;;1.73;;
6751;SDS011;3413;47.680;9.166;2024-03-06T12:50:32;5.50;;;1.90;;
6751;SDS011;3413;47.680;9.166;2024-03-06T12:55:34;7.03;;;1.97;;
6751;SDS011;3413;47.680;9.166;2024-03-06T13:00:36;2.03;;;1.30;;
6751;SDS011;3413;47.680;9.166;2024-03-06T13:05:39;1.77;;;1.47;;
6751;SDS011;3413;47.680;9.166;2024-03-06T13:10:42;2.30;;;1.50;;
6751;SDS011;3413;47.680;9.166;2024-03-06T13:15:44;2.90;;;1.63;;
6751;SDS011;3413;47.680;9.166;2024-03-06T13:20:47;3.10;;;1.47;;
6751;SDS011;3413;47.680;9.166;2024-03-06T13:25:50;2.07;;;1.30;;
6751;SDS011;3413;47.680;9.166;2024-03-06T13:30:52;2.20;;;1.40;;
6751;SDS011;3413;47.680;9.166;2024-03-06T13:35:54;3.57;;;1.50;;
6751;SDS011;3413;47.680;9.166;2024-03-06T13:40:57;2.50;;;1.40;;
6751;SDS011;3413;47.680;9.166;2024-03-06T13:45:59;4.13;;;1.30;;
6751;SDS011;3413;47.680;9.166;2024-03-06T13:51:01;2.70;;;1.50;;
6751;SDS011;3413;47.680;9.166;2024-03-06T13:56:03;2.77;;;1.20;;
6751;SDS011;3413;47.680;9.166;2024-03-06T14:01:05;6.30;;;1.50;;
6751;SDS011;3413;47.680;9.166;2024-03-06T14:06:10;1.77;;;1.30;;
6751;SDS011;3413;47.680;9.166;2024-03-06T14:11:15;1.50;;;0.90;;
6751;SDS011;3413;47.680;9.166;2024-03-06T14:16:17;5.00;;;1.70;;
6751;SDS011;3413;47.680;9.166;2024-03-06T14:21:26;2.63;;;1.13;;
6751;SDS011;3413;47.680;9.166;2024-03-06T14:26:33;1.90;;;1.00;;
6751;SDS011;3413;47.680;9.166;2024-03-06T14:31:40;1.63;;;1.10;;
6751;SDS011;3413;47.680;9.166;2024-03-06T14:37:08;3.13;;;1.00;;
6751;SDS011;3413;47.680;9.166;2024-03-06T14:42:14;2.00;;;1.17;;
6751;SDS011;3413;47.680;9.166;2024-03-06T14:47:21;1.43;;;1.00;;
6751;SDS011;3413;47.680;9.166;2024-03-06T14:52:27;1.70;;;1.20;;
6751;SDS011;3413;47.680;9.166;2024-03-06T14:57:32;1.77;;;1.00;;
6751;SDS011;3413;47.680;9.166;2024-03-06T15:02:40;1.30;;;0.90;;
6751;SDS011;3413;47.680;9.166;2024-03-06T15:07:42;1.77;;;1.13;;
6751;SDS011;3413;47.680;9.166;2024-03-06T15:12:46;2.67;;;1.30;;
6751;SDS011;3413;47.680;9.166;2024-03-06T15:17:59;1.67;;;1.00;;
6751;SDS011;3413;47.680;9.166;2024-03-06T15:23:07;3.83;;;1.07;;
6751;SDS011;3413;47.680;9.166;2024-03-06T15:28:21;1.63;;;1.10;;
6751;SDS011;3413;47.680;9.166;2024-03-06T15:33:31;2.07;;;0.90;;
6751;SDS011;3413;47.680;9.166;2024-03-06T15:38:34;1.83;;;1.10;;
6751;SDS011;3413;47.680;9.166;2024-03-06T15:43:39;1.87;;;0.90;;
6751;SDS011;3413;47.680;9.166;2024-03-06T15:48:41;1.40;;;1.00;;
6751;SDS011;3413;47.680;9.166;2024-03-06T15:53:45;1.43;;;1.00;;
6751;SDS011;3413;47.680;9.166;2024-03-06T15:58:55;2.53;;;1.10;;
6751;SDS011;3413;47.680;9.166;2024-03-06T16:03:58;2.33;;;1.20;;
6751;SDS011;3413;47.680;9.166;2024-03-06T16:09:07;2.50;;;1.20;;
6751;SDS011;3413;47.680;9.166;2024-03-06T16:14:31;2.53;;;1.20;;
6751;SDS011;3413;47.680;9.166;2024-03-06T16:19:34;1.40;;;1.00;;
6751;SDS011;3413;47.680;9.166;2024-03-06T16:24:47;1.30;;;0.80;;
6751;SDS011;3413;47.680;9.166;2024-03-06T16:29:50;2.07;;;1.60;;
6751;SDS011;3413;47.680;9.166;2024-03-06T16:34:53;2.23;;;1.00;;
6751;SDS011;3413;47.680;9.166;2024-03-06T16:46:34;3.20;;;1.27;;
6751;SDS011;3413;47.680;9.166;2024-03-06T16:53:30;1.40;;;0.90;;
6751;SDS011;3413;47.680;9.166;2024-03-06T20:11:03;2.07;;;1.30;;
6751;SDS011;3413;47.680;9.166;2024-03-06T20:54:22;2.47;;;1.60;;
6751;SDS011;3413;47.680;9.166;2024-03-06T20:59:24;2.37;;;1.33;;
6751;SDS011;3413;47.680;9.166;2024-03-06T21:04:26;2.40;;;1.53;;
6751;SDS011;3413;47.680;9.166;2024-03-06T21:09:28;3.27;;;1.97;;
6751;SDS011;3413;47.680;9.166;2024-03-06T21:14:30;2.80;;;1.77;;
6751;SDS011;3413;47.680;9.166;2024-03-06T21:19:35;3.27;;;1.57;;
6751;SDS011;3413;47.680;9.166;2024-03-06T21:24:38;3.27;;;1.83;;
6751;SDS011;3413;47.680;9.166;2024-03-06T21:29:40;9.73;;;3.80;;
6751;SDS011;3413;47.680;9.166;2024-03-06T21:34:43;6.93;;;3.70;;
6751;SDS011;3413;47.680;9.166;2024-03-06T21:39:46;6.67;;;3.53;;
6751;SDS011;3413;47.680;9.166;2024-03-06T21:44:50;10.37;;;4.07;;
6751;SDS011;3413;47.680;9.166;2024-03-06T21:49:52;7.90;;;4.17;;
6751;SDS011;3413;47.680;9.166;2024-03-06T21:54:54;9.50;;;4.77;;
6751;SDS011;3413;47.680;9.166;2024-03-06T21:59:55;9.47;;;4.57;;
6751;SDS011;3413;47.680;9.166;2024-03-06T22:04:58;9.70;;;4.77;;
6751;SDS011;3413;47.680;9.166;2024-03-06T22:10:01;11.07;;;4.40;;
6751;SDS011;3413;47.680;9.166;2024-03-06T22:15:03;9.90;;;5.00;;
6751;SDS011;3413;47.680;9.166;2024-03-06T22:20:07;7.70;;;4.50;;
6751;SDS011;3413;47.680;9.166;2024-03-06T22:25:11;10.37;;;4.40;;
6751;SDS011;3413;47.680;9.166;2024-03-06T22:30:13;11.60;;;4.90;;
6751;SDS011;3413;47.680;9.166;2024-03-06T22:35:17;7.90;;;4.53;;
6751;SDS011;3413;47.680;9.166;2024-03-06T22:40:19;9.27;;;3.87;;
6751;SDS011;3413;47.680;9.166;2024-03-06T22:45:22;6.87;;;3.80;;
6751;SDS011;3413;47.680;9.166;2024-03-06T22:50:25;9.93;;;4.00;;
6751;SDS011;3413;47.680;9.166;2024-03-06T22:55:27;7.53;;;4.20;;
6751;SDS011;3413;47.680;9.166;2024-03-06T23:00:29;8.40;;;3.77;;
6751;SDS011;3413;47.680;9.166;2024-03-06T23:05:32;10.90;;;4.80;;
6751;SDS011;3413;47.680;9.166;2024-03-06T23:10:34;7.30;;;3.73;;
6751;SDS011;3413;47.680;9.166;2024-03-06T23:15:36;10.10;;;4.23;;
6751;SDS011;3413;47.680;9.166;2024-03-06T23:20:38;9.57;;;4.30;;
6751;SDS011;3413;47.680;9.166;2024-03-06T23:25:39;7.37;;;3.83;;
6751;SDS011;3413;47.680;9.166;2024-03-06T23:30:41;6.77;;;3.50;;
6751;SDS011;3413;47.680;9.166;2024-03-06T23:35:43;10.07;;;4.87;;
6751;SDS011;3413;47.680;9.166;2024-03-06T23:40:45;9.30;;;5.00;;
6751;SDS011;3413;47.680;9.166;2024-03-06T23:45:47;11.67;;;5.33;;
6751;SDS011;3413;47.680;9.166;2024-03-06T23:50:49;12.87;;;5.27;;
6751;SDS011;3413;47.680;9.166;2024-03-06T23:55:51;10.37;;;5.00;;
